Latest Coastal Weather Observations for Marion Reef

IDQ60701

Issued at 4:42 pm EST Thursday 11 February 2016 (issued every 10 minutes, with the page automatically refreshed every 10 minutes)

About coastal observations | Map of coastal stations | Coastal observations for QLD | Marine services | Other Formats
Station Details ID: 200704 Name: MARION REEF Lat: -19.10 Lon: 152.39 Height: 2.0 m
Data from the previous 72 hours. | See also: Recent months for locations in Queensland
Date/Time
EST
Temp

°C
Wind Pressure Rain
since 9am
mm
Weather Cloud Vis
km
Sea
Height
m
Swell
Dir
 
Speed
knots
Gust
knots
hPa Trend Height
m
Period
s
Dir
11/04:38pm 28.4 SSE 19 32 1004.6 - - - - - - - - -
11/04:30pm 28.7 SSE 20 23 1004.4 - - - - - - - - -
11/04:00pm 28.8 SSE 21 24 1004.3 - - - - - - - - -
11/03:30pm 28.5 SSE 19 23 1004.3 - - - - - - - - -
11/03:00pm 27.4 S 17 28 1004.4 - - - - - - - - -
11/02:30pm 28.0 S 17 20 1004.6 - - - - - - - - -
11/02:00pm 28.9 SSE 18 21 1004.7 - - - - - - - - -
11/01:30pm 28.8 SSE 17 19 1005.3 - - - - - - - - -
11/01:00pm 28.7 SSE 17 19 1005.5 - - - - - - - - -
11/12:30pm 28.6 SSE 19 21 1005.9 - - - - - - - - -
11/12:00pm 28.7 SSE 17 19 1006.0 - - - - - - - - -
11/11:30am 28.6 SSE 16 19 1006.3 - - - - - - - - -
11/11:00am 28.7 SSE 18 21 1006.0 - - - - - - - - -
11/10:30am 28.6 SSE 17 20 1006.0 - - - - - - - - -
11/10:00am 28.5 SSE 18 22 1006.1 - - - - - - - - -
11/09:30am 28.3 SSE 20 22 1006.4 - - - - - - - - -
11/09:00am 28.5 SSE 20 22 1006.4 - - - - - - - - -
11/08:30am 28.4 SSE 20 23 1006.6 - - - - - - - - -
11/08:00am 28.3 SSE 20 23 1006.2 - - - - - - - - -
11/07:30am 28.4 SSE 21 26 1006.0 - - - - - - - - -
11/07:00am 28.4 SSE 20 23 1005.6 - - - - - - - - -
11/06:30am 28.1 SSE 21 25 1005.4 - - - - - - - - -
11/06:00am 28.1 SE 20 24 1004.9 - - - - - - - - -
11/05:30am 28.1 SE 20 23 1004.8 - - - - - - - - -
11/05:00am 28.0 SSE 20 23 1004.5 - - - - - - - - -
11/04:30am 27.9 SSE 20 23 1004.4 - - - - - - - - -
11/04:00am 27.9 SSE 22 27 1004.2 - - - - - - - - -
11/03:30am 27.9 SSE 21 25 1004.6 - - - - - - - - -
11/03:00am 27.4 SSE 21 28 1004.6 - - - - - - - - -
11/02:30am 28.0 SE 20 24 1004.9 - - - - - - - - -
11/02:00am 27.9 SSE 22 26 1004.8 - - - - - - - - -
11/01:30am 28.0 SSE 20 25 1005.2 - - - - - - - - -
11/01:00am 28.0 SE 23 26 1005.2 - - - - - - - - -
11/12:30am 27.9 SSE 23 27 1005.5 - - - - - - - - -
11/12:00am 28.1 SSE 23 28 1005.6 - - - - - - - - -
 
Date/Time
EST
Temp

°C
Wind Pressure Rain
since 9am
mm
Weather Cloud Vis
km
Sea
Height
m
Swell
Dir
 
Speed
knots
Gust
knots
hPa Trend Height
m
Period
s
Dir
10/11:30pm 28.2 SSE 23 28 1006.0 - - - - - - - - -
10/11:00pm 28.3 SSE 22 27 1006.2 - - - - - - - - -
10/10:30pm 28.3 SSE 23 27 1006.6 - - - - - - - - -
10/10:00pm 28.4 SSE 24 29 1006.6 - - - - - - - - -
10/09:30pm 27.6 SSE 24 28 1006.9 - - - - - - - - -
10/09:00pm 27.4 SSE 26 30 1006.7 - - - - - - - - -
10/08:30pm 27.6 SSE 25 30 1006.9 - - - - - - - - -
10/08:00pm 27.5 SSE 25 29 1006.6 - - - - - - - - -
10/07:30pm 28.6 SSE 23 27 1006.3 - - - - - - - - -
10/07:00pm 28.3 SSE 23 28 1005.8 - - - - - - - - -
10/06:30pm 28.4 SSE 23 28 1005.6 - - - - - - - - -
10/06:00pm 28.5 SSE 23 28 1005.2 - - - - - - - - -
10/05:30pm 28.5 SSE 22 27 1004.8 - - - - - - - - -
10/05:00pm 28.7 SE 24 28 1004.5 - - - - - - - - -
10/04:30pm 28.5 SSE 24 28 1004.5 - - - - - - - - -
10/04:00pm 28.6 SSE 23 27 1004.2 - - - - - - - - -
10/03:30pm 28.2 SSE 23 27 1004.3 - - - - - - - - -
10/03:00pm 28.5 SSE 23 27 1004.1 - - - - - - - - -
10/02:30pm 28.6 SSE 23 27 1004.3 - - - - - - - - -
10/02:00pm 28.5 SSE 23 27 1004.3 - - - - - - - - -
10/01:30pm 28.5 SSE 24 27 1004.7 - - - - - - - - -
10/01:00pm 28.5 SE 23 26 1004.7 - - - - - - - - -
10/12:30pm 28.4 SSE 23 27 1005.2 - - - - - - - - -
10/12:00pm 28.4 SE 23 27 1005.3 - - - - - - - - -
10/11:30am 28.0 SE 23 27 1005.5 - - - - - - - - -
10/11:00am 28.1 SE 23 26 1005.6 - - - - - - - - -
10/10:52am 28.5 SE 22 26 1005.8 - - - - - - - - -
10/10:30am 26.9 SSE 18 23 1006.1 - - - - - - - - -
10/10:00am 27.6 SSE 21 26 1006.1 - - - - - - - - -
10/09:30am 27.6 SSE 22 26 1006.3 - - - - - - - - -
10/09:00am 27.1 SSE 24 28 1006.4 - - - - - - - - -
10/08:30am 27.6 SSE 23 26 1006.3 - - - - - - - - -
10/08:00am 27.5 SSE 23 28 1006.1 - - - - - - - - -
10/07:30am 27.4 SSE 22 26 1005.8 - - - - - - - - -
10/07:12am 27.2 SSE 26 31 1005.6 - - - - - - - - -
10/07:00am 26.8 SE 26 33 1005.4 - - - - - - - - -
10/06:30am 27.9 SE 26 30 1005.1 - - - - - - - - -
10/06:00am 27.7 SSE 28 31 1004.8 - - - - - - - - -
10/05:30am 27.5 SE 28 33 1004.5 - - - - - - - - -
10/05:00am 27.5 SE 27 33 1004.1 - - - - - - - - -
10/04:30am 26.9 SSE 27 31 1003.9 - - - - - - - - -
10/04:00am 26.8 SSE 24 28 1003.8 - - - - - - - - -
10/03:30am 27.6 SSE 25 29 1004.0 - - - - - - - - -
10/03:00am 27.3 SE 25 29 1003.9 - - - - - - - - -
10/02:30am 26.6 SE 29 35 1004.4 - - - - - - - - -
10/02:00am 28.4 SE 26 31 1004.2 - - - - - - - - -
10/01:30am 28.5 SE 25 29 1004.7 - - - - - - - - -
10/01:00am 26.9 SSE 27 32 1004.8 - - - - - - - - -
10/12:30am 26.9 SSE 28 33 1005.4 - - - - - - - - -
10/12:00am 28.5 SE 24 28 1005.7 - - - - - - - - -
 
Date/Time
EST
Temp

°C
Wind Pressure Rain
since 9am
mm
Weather Cloud Vis
km
Sea
Height
m
Swell
Dir
 
Speed
knots
Gust
knots
hPa Trend Height
m
Period
s
Dir
09/11:30pm 28.0 SE 24 29 1006.2 - - - - - - - - -
09/11:00pm 28.4 SE 27 31 1006.3 - - - - - - - - -
09/10:30pm 28.6 SE 26 32 1006.9 - - - - - - - - -
09/10:00pm 28.6 SE 28 31 1007.0 - - - - - - - - -
09/09:30pm 28.1 SE 27 32 1007.0 - - - - - - - - -
09/09:00pm 29.0 SE 30 34 1006.9 - - - - - - - - -
09/08:30pm 28.8 SSE 28 33 1006.8 - - - - - - - - -
09/08:00pm 28.8 SE 27 33 1006.6 - - - - - - - - -
09/07:30pm 28.3 SE 28 32 1006.3 - - - - - - - - -
09/07:00pm 28.2 SE 27 34 1006.1 - - - - - - - - -
09/06:30pm 28.4 SE 28 33 1006.0 - - - - - - - - -
09/06:00pm 28.4 SE 27 33 1005.9 - - - - - - - - -
09/05:30pm 28.5 SE 29 34 1005.8 - - - - - - - - -
09/05:00pm 27.9 SE 29 34 1005.5 - - - - - - - - -
09/04:30pm 28.1 SE 29 35 1005.2 - - - - - - - - -
09/04:00pm 27.7 SE 28 34 1005.0 - - - - - - - - -
09/03:30pm 27.7 SE 28 33 1005.0 - - - - - - - - -
09/03:00pm 27.7 SSE 29 34 1004.8 - - - - - - - - -
09/02:30pm 27.1 SSE 27 32 1004.9 - - - - - - - - -
09/02:00pm 27.4 SSE 28 33 1005.1 - - - - - - - - -
09/01:30pm 27.1 SSE 28 33 1005.9 - - - - - - - - -
09/01:00pm 26.4 SE 28 33 1006.1 - - - - - - - - -
09/12:30pm 27.2 SE 27 31 1006.4 - - - - - - - - -
09/12:00pm 28.8 SE 26 32 1006.5 - - - - - - - - -
09/11:30am 27.8 SE 27 32 1006.9 - - - - - - - - -
09/11:00am 27.6 SSE 26 31 1006.9 - - - - - - - - -
09/10:30am 27.0 SE 26 31 1007.2 - - - - - - - - -
09/10:00am 27.4 ESE 27 31 1007.0 - - - - - - - - -
09/09:30am 28.5 SE 25 29 1007.0 - - - - - - - - -
09/09:00am 27.8 SSE 24 29 1006.8 - - - - - - - - -
09/08:30am 28.9 SE 24 28 1006.6 - - - - - - - - -
09/08:00am 28.6 SE 24 29 1006.6 - - - - - - - - -
09/07:30am 28.5 SE 26 32 1006.5 - - - - - - - - -
09/07:00am 28.3 SE 25 31 1006.1 - - - - - - - - -
09/06:30am 28.0 SE 24 29 1006.1 - - - - - - - - -
09/06:00am 28.0 SE 25 29 1005.7 - - - - - - - - -
09/05:30am 28.2 SE 25 29 1005.6 - - - - - - - - -
09/05:00am 28.4 SE 25 29 1005.4 - - - - - - - - -
09/04:30am 28.5 SE 25 29 1005.2 - - - - - - - - -
09/04:00am 28.2 SE 24 27 1005.0 - - - - - - - - -
09/03:30am 27.2 SE 25 30 1005.2 - - - - - - - - -
09/03:00am 27.7 SE 24 27 1005.2 - - - - - - - - -
09/02:30am 27.7 SE 22 26 1005.6 - - - - - - - - -
09/02:00am 27.5 SE 23 28 1005.5 - - - - - - - - -
09/01:30am 26.1 ENE 17 26 1005.7 - - - - - - - - -
09/01:29am 26.0 ENE 16 26 1005.8 - - - - - - - - -
09/01:00am 26.7 E 13 16 1006.0 - - - - - - - - -
09/12:30am 26.6 ENE 16 18 1006.6 - - - - - - - - -
09/12:00am 26.6 NE 19 22 1006.9 - - - - - - - - -
 
Date/Time
EST
Temp

°C
Wind Pressure Rain
since 9am
mm
Weather Cloud Vis
km
Sea
Height
m
Swell
Dir
 
Speed
knots
Gust
knots
hPa Trend Height
m
Period
s
Dir
08/11:30pm 26.9 ENE 22 26 1007.8 - - - - - - - - -
08/11:00pm 27.1 ENE 22 27 1008.0 - - - - - - - - -
08/10:48pm 27.6 E 24 29 1008.1 - - - - - - - - -
08/10:30pm 28.4 SE 22 27 1008.3 - - - - - - - - -
08/10:00pm 27.9 SE 20 23 1008.1 - - - - - - - - -
08/09:30pm 27.8 SE 18 21 1008.1 - - - - - - - - -
08/09:00pm 27.7 SE 18 21 1007.7 - - - - - - - - -
08/08:30pm 26.6 ESE 16 20 1007.9 - - - - - - - - -
08/08:00pm 26.7 SE 23 28 1007.8 - - - - - - - - -
08/07:30pm 28.5 SE 18 22 1007.5 - - - - - - - - -
08/07:00pm 28.1 SE 21 24 1007.3 - - - - - - - - -
08/06:30pm 28.3 ESE 22 25 1006.6 - - - - - - - - -
08/06:00pm 28.1 ESE 22 28 1006.3 - - - - - - - - -
08/05:56pm 27.9 ESE 22 25 1006.3 - - - - - - - - -
08/05:30pm 27.8 SE 23 28 1005.9 - - - - - - - - -
08/05:00pm 27.5 SSE 22 26 1005.4 - - - - - - - - -

Other Formats:

Comma delimited format used in spreadsheet applications
http://www.bom.gov.au/fwo/IDQ60701/IDQ60701.94298.axf

JavaScript Object Notation format (JSON) in row-major order
http://www.bom.gov.au/fwo/IDQ60701/IDQ60701.94298.json